sensor_id;sensor_type;location;lat;lon;timestamp;P1;durP1;ratioP1;P2;durP2;ratioP2
12687;SDS011;6408;59.388;17.798;2022-08-14T00:01:09;5.35;;;2.05;;
12687;SDS011;6408;59.388;17.798;2022-08-14T00:03:37;2.17;;;1.73;;
12687;SDS011;6408;59.388;17.798;2022-08-14T00:06:05;3.85;;;1.70;;
12687;SDS011;6408;59.388;17.798;2022-08-14T00:08:32;1.80;;;1.60;;
12687;SDS011;6408;59.388;17.798;2022-08-14T00:10:59;3.67;;;2.00;;
12687;SDS011;6408;59.388;17.798;2022-08-14T00:13:26;2.55;;;2.03;;
12687;SDS011;6408;59.388;17.798;2022-08-14T00:15:54;1.70;;;1.60;;
12687;SDS011;6408;59.388;17.798;2022-08-14T00:18:22;1.67;;;1.58;;
12687;SDS011;6408;59.388;17.798;2022-08-14T00:20:52;3.97;;;1.80;;
12687;SDS011;6408;59.388;17.798;2022-08-14T00:23:19;1.60;;;1.50;;
12687;SDS011;6408;59.388;17.798;2022-08-14T00:25:47;2.83;;;1.92;;
12687;SDS011;6408;59.388;17.798;2022-08-14T00:28:15;1.83;;;1.73;;
12687;SDS011;6408;59.388;17.798;2022-08-14T00:30:43;2.67;;;1.80;;
12687;SDS011;6408;59.388;17.798;2022-08-14T00:33:11;3.38;;;1.75;;
12687;SDS011;6408;59.388;17.798;2022-08-14T00:35:38;2.28;;;1.58;;
12687;SDS011;6408;59.388;17.798;2022-08-14T00:38:06;3.08;;;1.85;;
12687;SDS011;6408;59.388;17.798;2022-08-14T00:40:32;1.92;;;1.73;;
12687;SDS011;6408;59.388;17.798;2022-08-14T00:43:00;2.40;;;1.65;;
12687;SDS011;6408;59.388;17.798;2022-08-14T00:45:27;1.65;;;1.55;;
12687;SDS011;6408;59.388;17.798;2022-08-14T00:47:53;1.60;;;1.50;;
12687;SDS011;6408;59.388;17.798;2022-08-14T00:50:20;4.13;;;1.90;;
12687;SDS011;6408;59.388;17.798;2022-08-14T00:52:49;2.75;;;1.60;;
12687;SDS011;6408;59.388;17.798;2022-08-14T00:55:19;4.70;;;1.88;;
12687;SDS011;6408;59.388;17.798;2022-08-14T00:57:46;2.25;;;1.85;;
12687;SDS011;6408;59.388;17.798;2022-08-14T01:00:34;3.15;;;1.80;;
12687;SDS011;6408;59.388;17.798;2022-08-14T01:03:01;2.78;;;1.67;;
12687;SDS011;6408;59.388;17.798;2022-08-14T01:05:29;2.00;;;1.80;;
12687;SDS011;6408;59.388;17.798;2022-08-14T01:07:58;1.60;;;1.50;;
12687;SDS011;6408;59.388;17.798;2022-08-14T01:10:28;2.58;;;1.70;;
12687;SDS011;6408;59.388;17.798;2022-08-14T01:13:09;2.83;;;1.58;;
12687;SDS011;6408;59.388;17.798;2022-08-14T01:15:40;3.92;;;1.77;;
12687;SDS011;6408;59.388;17.798;2022-08-14T01:18:07;3.92;;;1.75;;
12687;SDS011;6408;59.388;17.798;2022-08-14T01:20:52;3.03;;;1.67;;
12687;SDS011;6408;59.388;17.798;2022-08-14T01:23:32;2.10;;;1.60;;
12687;SDS011;6408;59.388;17.798;2022-08-14T01:26:00;2.33;;;1.77;;
12687;SDS011;6408;59.388;17.798;2022-08-14T01:28:27;2.72;;;1.65;;
12687;SDS011;6408;59.388;17.798;2022-08-14T01:30:58;1.80;;;1.52;;
12687;SDS011;6408;59.388;17.798;2022-08-14T01:33:25;1.80;;;1.35;;
12687;SDS011;6408;59.388;17.798;2022-08-14T01:35:54;2.20;;;1.58;;
12687;SDS011;6408;59.388;17.798;2022-08-14T01:38:22;2.40;;;1.70;;
12687;SDS011;6408;59.388;17.798;2022-08-14T01:40:50;3.55;;;1.58;;
12687;SDS011;6408;59.388;17.798;2022-08-14T01:43:17;5.65;;;1.70;;
12687;SDS011;6408;59.388;17.798;2022-08-14T01:45:45;2.50;;;1.80;;
12687;SDS011;6408;59.388;17.798;2022-08-14T01:48:13;1.55;;;1.40;;
12687;SDS011;6408;59.388;17.798;2022-08-14T01:50:40;2.40;;;1.60;;
12687;SDS011;6408;59.388;17.798;2022-08-14T01:53:08;2.53;;;1.70;;
12687;SDS011;6408;59.388;17.798;2022-08-14T01:55:35;3.28;;;1.73;;
12687;SDS011;6408;59.388;17.798;2022-08-14T01:58:04;2.67;;;1.60;;
12687;SDS011;6408;59.388;17.798;2022-08-14T02:00:35;2.13;;;1.50;;
12687;SDS011;6408;59.388;17.798;2022-08-14T02:03:03;3.13;;;1.58;;
12687;SDS011;6408;59.388;17.798;2022-08-14T02:05:30;3.17;;;1.70;;
12687;SDS011;6408;59.388;17.798;2022-08-14T02:07:58;3.33;;;1.60;;
12687;SDS011;6408;59.388;17.798;2022-08-14T02:10:24;2.15;;;1.60;;
12687;SDS011;6408;59.388;17.798;2022-08-14T02:12:53;2.83;;;1.80;;
12687;SDS011;6408;59.388;17.798;2022-08-14T02:15:22;1.75;;;1.65;;
12687;SDS011;6408;59.388;17.798;2022-08-14T02:17:49;1.80;;;1.70;;
12687;SDS011;6408;59.388;17.798;2022-08-14T02:20:16;4.00;;;1.50;;
12687;SDS011;6408;59.388;17.798;2022-08-14T02:22:44;2.17;;;1.70;;
12687;SDS011;6408;59.388;17.798;2022-08-14T02:25:11;3.38;;;1.70;;
12687;SDS011;6408;59.388;17.798;2022-08-14T02:27:39;1.90;;;1.70;;
12687;SDS011;6408;59.388;17.798;2022-08-14T02:30:07;1.60;;;1.50;;
12687;SDS011;6408;59.388;17.798;2022-08-14T02:32:36;2.20;;;2.00;;
12687;SDS011;6408;59.388;17.798;2022-08-14T02:35:04;1.60;;;1.50;;
12687;SDS011;6408;59.388;17.798;2022-08-14T02:37:40;1.63;;;1.50;;
12687;SDS011;6408;59.388;17.798;2022-08-14T02:40:07;3.25;;;2.10;;
12687;SDS011;6408;59.388;17.798;2022-08-14T02:42:36;2.60;;;1.75;;
12687;SDS011;6408;59.388;17.798;2022-08-14T02:45:04;2.17;;;1.75;;
12687;SDS011;6408;59.388;17.798;2022-08-14T02:47:33;3.47;;;1.63;;
12687;SDS011;6408;59.388;17.798;2022-08-14T02:50:02;3.30;;;1.65;;
12687;SDS011;6408;59.388;17.798;2022-08-14T02:52:29;2.95;;;1.77;;
12687;SDS011;6408;59.388;17.798;2022-08-14T02:54:56;1.95;;;1.60;;
12687;SDS011;6408;59.388;17.798;2022-08-14T02:57:23;1.70;;;1.60;;
12687;SDS011;6408;59.388;17.798;2022-08-14T02:59:52;1.85;;;1.70;;
12687;SDS011;6408;59.388;17.798;2022-08-14T03:02:19;1.77;;;1.67;;
12687;SDS011;6408;59.388;17.798;2022-08-14T03:04:46;1.92;;;1.58;;
12687;SDS011;6408;59.388;17.798;2022-08-14T03:07:14;3.88;;;1.77;;
12687;SDS011;6408;59.388;17.798;2022-08-14T03:09:42;3.30;;;1.83;;
12687;SDS011;6408;59.388;17.798;2022-08-14T03:12:09;2.95;;;1.80;;
12687;SDS011;6408;59.388;17.798;2022-08-14T03:14:36;2.20;;;1.60;;
12687;SDS011;6408;59.388;17.798;2022-08-14T03:17:05;1.65;;;1.50;;
12687;SDS011;6408;59.388;17.798;2022-08-14T03:19:35;4.22;;;1.73;;
12687;SDS011;6408;59.388;17.798;2022-08-14T03:22:02;1.50;;;1.40;;
12687;SDS011;6408;59.388;17.798;2022-08-14T03:24:31;2.42;;;1.70;;
12687;SDS011;6408;59.388;17.798;2022-08-14T03:26:58;2.50;;;1.60;;
12687;SDS011;6408;59.388;17.798;2022-08-14T03:29:25;2.90;;;1.88;;
12687;SDS011;6408;59.388;17.798;2022-08-14T03:31:52;3.78;;;1.70;;
12687;SDS011;6408;59.388;17.798;2022-08-14T03:34:19;5.50;;;1.88;;
12687;SDS011;6408;59.388;17.798;2022-08-14T03:36:47;3.22;;;1.50;;
12687;SDS011;6408;59.388;17.798;2022-08-14T03:39:18;2.42;;;1.65;;
12687;SDS011;6408;59.388;17.798;2022-08-14T03:41:47;2.35;;;1.77;;
12687;SDS011;6408;59.388;17.798;2022-08-14T03:44:15;2.90;;;1.85;;
12687;SDS011;6408;59.388;17.798;2022-08-14T03:46:42;2.03;;;1.58;;
12687;SDS011;6408;59.388;17.798;2022-08-14T03:49:09;3.63;;;1.58;;
12687;SDS011;6408;59.388;17.798;2022-08-14T03:51:36;4.25;;;1.65;;
12687;SDS011;6408;59.388;17.798;2022-08-14T03:54:05;2.08;;;1.60;;
12687;SDS011;6408;59.388;17.798;2022-08-14T03:56:33;3.90;;;1.88;;
12687;SDS011;6408;59.388;17.798;2022-08-14T03:59:04;2.53;;;1.60;;
12687;SDS011;6408;59.388;17.798;2022-08-14T04:01:35;2.08;;;1.60;;
12687;SDS011;6408;59.388;17.798;2022-08-14T04:04:03;2.35;;;1.60;;
12687;SDS011;6408;59.388;17.798;2022-08-14T04:06:31;1.83;;;1.60;;
12687;SDS011;6408;59.388;17.798;2022-08-14T04:08:58;1.50;;;1.40;;
12687;SDS011;6408;59.388;17.798;2022-08-14T04:11:24;2.25;;;1.20;;
12687;SDS011;6408;59.388;17.798;2022-08-14T04:13:53;2.50;;;1.48;;
12687;SDS011;6408;59.388;17.798;2022-08-14T04:16:21;1.48;;;1.33;;
12687;SDS011;6408;59.388;17.798;2022-08-14T04:18:49;3.42;;;1.48;;
12687;SDS011;6408;59.388;17.798;2022-08-14T04:21:18;2.95;;;1.58;;
12687;SDS011;6408;59.388;17.798;2022-08-14T04:23:47;5.47;;;1.60;;
12687;SDS011;6408;59.388;17.798;2022-08-14T04:26:14;1.67;;;1.48;;
12687;SDS011;6408;59.388;17.798;2022-08-14T04:28:43;1.40;;;1.30;;
12687;SDS011;6408;59.388;17.798;2022-08-14T04:31:11;1.70;;;1.60;;
12687;SDS011;6408;59.388;17.798;2022-08-14T04:33:40;1.60;;;1.30;;
12687;SDS011;6408;59.388;17.798;2022-08-14T04:36:07;2.38;;;1.70;;
12687;SDS011;6408;59.388;17.798;2022-08-14T04:38:34;1.48;;;1.30;;
12687;SDS011;6408;59.388;17.798;2022-08-14T04:41:18;2.55;;;1.50;;
12687;SDS011;6408;59.388;17.798;2022-08-14T04:44:03;1.60;;;1.50;;
12687;SDS011;6408;59.388;17.798;2022-08-14T04:46:32;1.88;;;1.60;;
12687;SDS011;6408;59.388;17.798;2022-08-14T04:49:02;4.07;;;1.52;;
12687;SDS011;6408;59.388;17.798;2022-08-14T04:51:28;2.55;;;1.63;;
12687;SDS011;6408;59.388;17.798;2022-08-14T04:53:57;3.67;;;1.52;;
12687;SDS011;6408;59.388;17.798;2022-08-14T04:56:25;8.63;;;1.75;;
12687;SDS011;6408;59.388;17.798;2022-08-14T04:58:54;2.50;;;1.40;;
12687;SDS011;6408;59.388;17.798;2022-08-14T05:01:28;2.65;;;1.67;;
12687;SDS011;6408;59.388;17.798;2022-08-14T05:03:55;1.73;;;1.48;;
12687;SDS011;6408;59.388;17.798;2022-08-14T05:06:23;2.53;;;1.55;;
12687;SDS011;6408;59.388;17.798;2022-08-14T05:08:50;4.07;;;1.70;;
12687;SDS011;6408;59.388;17.798;2022-08-14T05:11:17;1.60;;;1.38;;
12687;SDS011;6408;59.388;17.798;2022-08-14T05:13:44;3.47;;;1.50;;
12687;SDS011;6408;59.388;17.798;2022-08-14T05:16:13;3.85;;;1.60;;
12687;SDS011;6408;59.388;17.798;2022-08-14T05:18:40;1.63;;;1.30;;
12687;SDS011;6408;59.388;17.798;2022-08-14T05:21:10;2.00;;;1.70;;
12687;SDS011;6408;59.388;17.798;2022-08-14T05:23:39;1.67;;;1.45;;
12687;SDS011;6408;59.388;17.798;2022-08-14T05:26:06;2.53;;;1.60;;
12687;SDS011;6408;59.388;17.798;2022-08-14T05:28:39;2.85;;;1.70;;
12687;SDS011;6408;59.388;17.798;2022-08-14T05:31:09;2.35;;;1.50;;
12687;SDS011;6408;59.388;17.798;2022-08-14T05:33:37;3.22;;;1.80;;
12687;SDS011;6408;59.388;17.798;2022-08-14T05:36:05;1.83;;;1.40;;
12687;SDS011;6408;59.388;17.798;2022-08-14T05:38:35;2.35;;;1.80;;
12687;SDS011;6408;59.388;17.798;2022-08-14T05:41:06;3.03;;;1.70;;
12687;SDS011;6408;59.388;17.798;2022-08-14T05:43:35;2.00;;;1.60;;
12687;SDS011;6408;59.388;17.798;2022-08-14T05:46:02;1.40;;;1.30;;
12687;SDS011;6408;59.388;17.798;2022-08-14T05:48:30;3.95;;;1.60;;
12687;SDS011;6408;59.388;17.798;2022-08-14T05:50:57;1.52;;;1.42;;
12687;SDS011;6408;59.388;17.798;2022-08-14T05:53:24;2.50;;;1.50;;
12687;SDS011;6408;59.388;17.798;2022-08-14T05:55:52;2.45;;;1.60;;
12687;SDS011;6408;59.388;17.798;2022-08-14T05:58:21;1.58;;;1.40;;
12687;SDS011;6408;59.388;17.798;2022-08-14T06:00:48;2.30;;;1.40;;
12687;SDS011;6408;59.388;17.798;2022-08-14T06:03:17;2.95;;;1.60;;
12687;SDS011;6408;59.388;17.798;2022-08-14T06:05:47;2.15;;;1.50;;
12687;SDS011;6408;59.388;17.798;2022-08-14T06:08:16;1.58;;;1.48;;
12687;SDS011;6408;59.388;17.798;2022-08-14T06:10:44;2.10;;;1.40;;
12687;SDS011;6408;59.388;17.798;2022-08-14T06:13:12;3.45;;;1.60;;
12687;SDS011;6408;59.388;17.798;2022-08-14T06:15:42;2.92;;;1.55;;
12687;SDS011;6408;59.388;17.798;2022-08-14T06:18:09;2.05;;;1.50;;
12687;SDS011;6408;59.388;17.798;2022-08-14T06:20:36;2.78;;;1.42;;
12687;SDS011;6408;59.388;17.798;2022-08-14T06:23:04;3.95;;;1.67;;
12687;SDS011;6408;59.388;17.798;2022-08-14T06:25:31;2.05;;;1.33;;
12687;SDS011;6408;59.388;17.798;2022-08-14T06:27:58;2.47;;;1.60;;
12687;SDS011;6408;59.388;17.798;2022-08-14T06:30:25;3.67;;;1.55;;
12687;SDS011;6408;59.388;17.798;2022-08-14T06:32:55;3.00;;;1.50;;
12687;SDS011;6408;59.388;17.798;2022-08-14T06:35:21;1.50;;;1.40;;
12687;SDS011;6408;59.388;17.798;2022-08-14T06:37:49;2.47;;;1.40;;
12687;SDS011;6408;59.388;17.798;2022-08-14T06:40:17;1.50;;;1.40;;
12687;SDS011;6408;59.388;17.798;2022-08-14T06:42:46;1.88;;;1.55;;
12687;SDS011;6408;59.388;17.798;2022-08-14T06:45:13;2.28;;;1.40;;
12687;SDS011;6408;59.388;17.798;2022-08-14T06:47:42;2.45;;;1.58;;
12687;SDS011;6408;59.388;17.798;2022-08-14T06:50:14;3.33;;;1.38;;
12687;SDS011;6408;59.388;17.798;2022-08-14T06:52:42;2.70;;;1.40;;
12687;SDS011;6408;59.388;17.798;2022-08-14T06:55:11;4.32;;;1.83;;
12687;SDS011;6408;59.388;17.798;2022-08-14T06:57:41;1.92;;;1.33;;
12687;SDS011;6408;59.388;17.798;2022-08-14T07:00:12;1.40;;;1.30;;
12687;SDS011;6408;59.388;17.798;2022-08-14T07:02:39;1.83;;;1.33;;
12687;SDS011;6408;59.388;17.798;2022-08-14T07:05:25;5.40;;;1.35;;
12687;SDS011;6408;59.388;17.798;2022-08-14T07:08:11;1.58;;;1.35;;
12687;SDS011;6408;59.388;17.798;2022-08-14T07:10:39;3.28;;;1.58;;
12687;SDS011;6408;59.388;17.798;2022-08-14T07:13:07;5.03;;;1.67;;
12687;SDS011;6408;59.388;17.798;2022-08-14T07:15:34;1.50;;;1.40;;
12687;SDS011;6408;59.388;17.798;2022-08-14T07:18:01;1.92;;;1.40;;
12687;SDS011;6408;59.388;17.798;2022-08-14T07:20:30;1.85;;;1.30;;
12687;SDS011;6408;59.388;17.798;2022-08-14T07:22:57;2.03;;;1.50;;
12687;SDS011;6408;59.388;17.798;2022-08-14T07:25:24;4.10;;;1.38;;
12687;SDS011;6408;59.388;17.798;2022-08-14T07:27:51;3.78;;;1.45;;
12687;SDS011;6408;59.388;17.798;2022-08-14T07:30:18;2.20;;;1.42;;
12687;SDS011;6408;59.388;17.798;2022-08-14T07:32:45;2.35;;;1.50;;
12687;SDS011;6408;59.388;17.798;2022-08-14T07:35:12;1.48;;;1.30;;
12687;SDS011;6408;59.388;17.798;2022-08-14T07:37:40;1.83;;;1.50;;
12687;SDS011;6408;59.388;17.798;2022-08-14T07:40:07;2.38;;;1.40;;
12687;SDS011;6408;59.388;17.798;2022-08-14T07:42:36;3.63;;;1.55;;
12687;SDS011;6408;59.388;17.798;2022-08-14T07:45:03;1.42;;;1.33;;
12687;SDS011;6408;59.388;17.798;2022-08-14T07:47:30;1.92;;;1.50;;
12687;SDS011;6408;59.388;17.798;2022-08-14T07:49:59;3.00;;;1.30;;
12687;SDS011;6408;59.388;17.798;2022-08-14T07:52:27;2.17;;;1.48;;
12687;SDS011;6408;59.388;17.798;2022-08-14T07:54:55;3.28;;;1.33;;
12687;SDS011;6408;59.388;17.798;2022-08-14T07:57:22;4.05;;;1.40;;
12687;SDS011;6408;59.388;17.798;2022-08-14T07:59:50;3.33;;;1.50;;
12687;SDS011;6408;59.388;17.798;2022-08-14T08:02:17;3.45;;;1.50;;
12687;SDS011;6408;59.388;17.798;2022-08-14T08:04:45;3.58;;;1.30;;
12687;SDS011;6408;59.388;17.798;2022-08-14T08:07:14;2.58;;;1.60;;
12687;SDS011;6408;59.388;17.798;2022-08-14T08:09:41;1.48;;;1.30;;
12687;SDS011;6408;59.388;17.798;2022-08-14T08:12:13;1.40;;;1.30;;
12687;SDS011;6408;59.388;17.798;2022-08-14T08:14:42;1.58;;;1.38;;
12687;SDS011;6408;59.388;17.798;2022-08-14T08:17:09;2.70;;;1.55;;
12687;SDS011;6408;59.388;17.798;2022-08-14T08:19:37;4.15;;;1.55;;
12687;SDS011;6408;59.388;17.798;2022-08-14T08:22:04;1.60;;;1.50;;
12687;SDS011;6408;59.388;17.798;2022-08-14T08:24:30;2.38;;;1.30;;
12687;SDS011;6408;59.388;17.798;2022-08-14T08:26:57;2.72;;;1.50;;
12687;SDS011;6408;59.388;17.798;2022-08-14T08:29:26;2.28;;;1.70;;
12687;SDS011;6408;59.388;17.798;2022-08-14T08:31:53;1.58;;;1.27;;
12687;SDS011;6408;59.388;17.798;2022-08-14T08:34:20;2.45;;;1.30;;
12687;SDS011;6408;59.388;17.798;2022-08-14T08:36:47;1.58;;;1.40;;
12687;SDS011;6408;59.388;17.798;2022-08-14T08:39:13;2.15;;;1.50;;
12687;SDS011;6408;59.388;17.798;2022-08-14T08:41:40;4.53;;;1.60;;
12687;SDS011;6408;59.388;17.798;2022-08-14T08:44:09;1.67;;;1.25;;
12687;SDS011;6408;59.388;17.798;2022-08-14T08:46:38;3.10;;;1.60;;
12687;SDS011;6408;59.388;17.798;2022-08-14T08:49:06;2.55;;;1.70;;
12687;SDS011;6408;59.388;17.798;2022-08-14T08:51:36;1.67;;;1.30;;
12687;SDS011;6408;59.388;17.798;2022-08-14T08:54:04;3.38;;;1.45;;
12687;SDS011;6408;59.388;17.798;2022-08-14T08:56:34;2.65;;;1.70;;
12687;SDS011;6408;59.388;17.798;2022-08-14T08:59:02;4.85;;;1.60;;
12687;SDS011;6408;59.388;17.798;2022-08-14T09:01:31;3.85;;;1.58;;
12687;SDS011;6408;59.388;17.798;2022-08-14T09:04:03;3.35;;;1.50;;
12687;SDS011;6408;59.388;17.798;2022-08-14T09:06:30;3.55;;;1.40;;
12687;SDS011;6408;59.388;17.798;2022-08-14T09:08:56;2.40;;;1.23;;
12687;SDS011;6408;59.388;17.798;2022-08-14T09:11:24;2.72;;;1.60;;
12687;SDS011;6408;59.388;17.798;2022-08-14T09:13:51;4.10;;;1.50;;
12687;SDS011;6408;59.388;17.798;2022-08-14T09:16:19;2.33;;;1.50;;
12687;SDS011;6408;59.388;17.798;2022-08-14T09:18:50;1.85;;;1.50;;
12687;SDS011;6408;59.388;17.798;2022-08-14T09:21:18;8.73;;;1.77;;
12687;SDS011;6408;59.388;17.798;2022-08-14T09:23:45;3.95;;;1.52;;
12687;SDS011;6408;59.388;17.798;2022-08-14T09:26:12;2.13;;;1.40;;
12687;SDS011;6408;59.388;17.798;2022-08-14T09:28:39;2.45;;;1.52;;
12687;SDS011;6408;59.388;17.798;2022-08-14T09:31:06;3.00;;;1.40;;
12687;SDS011;6408;59.388;17.798;2022-08-14T09:33:51;1.98;;;1.33;;
12687;SDS011;6408;59.388;17.798;2022-08-14T09:39:41;1.85;;;1.30;;
12687;SDS011;6408;59.388;17.798;2022-08-14T09:42:22;1.90;;;1.30;;
12687;SDS011;6408;59.388;17.798;2022-08-14T09:45:01;2.58;;;1.60;;
12687;SDS011;6408;59.388;17.798;2022-08-14T09:47:42;1.90;;;1.40;;
12687;SDS011;6408;59.388;17.798;2022-08-14T09:50:23;1.90;;;1.30;;
12687;SDS011;6408;59.388;17.798;2022-08-14T09:52:54;1.40;;;1.30;;
12687;SDS011;6408;59.388;17.798;2022-08-14T09:55:24;1.52;;;1.42;;
12687;SDS011;6408;59.388;17.798;2022-08-14T09:57:52;3.95;;;1.50;;
12687;SDS011;6408;59.388;17.798;2022-08-14T10:00:43;1.52;;;1.30;;
12687;SDS011;6408;59.388;17.798;2022-08-14T10:03:11;1.98;;;1.40;;
12687;SDS011;6408;59.388;17.798;2022-08-14T10:05:38;1.55;;;1.40;;
12687;SDS011;6408;59.388;17.798;2022-08-14T10:08:15;2.13;;;1.40;;
12687;SDS011;6408;59.388;17.798;2022-08-14T10:10:45;1.52;;;1.20;;
12687;SDS011;6408;59.388;17.798;2022-08-14T10:13:20;2.55;;;1.30;;
12687;SDS011;6408;59.388;17.798;2022-08-14T10:15:48;1.73;;;1.50;;
12687;SDS011;6408;59.388;17.798;2022-08-14T10:18:16;1.20;;;1.10;;
12687;SDS011;6408;59.388;17.798;2022-08-14T10:20:51;1.95;;;1.20;;
12687;SDS011;6408;59.388;17.798;2022-08-14T10:23:20;4.03;;;1.48;;
12687;SDS011;6408;59.388;17.798;2022-08-14T10:25:50;3.03;;;1.30;;
12687;SDS011;6408;59.388;17.798;2022-08-14T10:28:18;2.22;;;1.30;;
12687;SDS011;6408;59.388;17.798;2022-08-14T10:30:47;2.50;;;1.52;;
12687;SDS011;6408;59.388;17.798;2022-08-14T10:33:25;1.75;;;1.30;;
12687;SDS011;6408;59.388;17.798;2022-08-14T10:35:54;1.98;;;1.30;;
12687;SDS011;6408;59.388;17.798;2022-08-14T10:38:25;3.35;;;1.48;;
12687;SDS011;6408;59.388;17.798;2022-08-14T10:40:54;2.08;;;1.30;;
12687;SDS011;6408;59.388;17.798;2022-08-14T10:43:22;1.48;;;1.20;;
12687;SDS011;6408;59.388;17.798;2022-08-14T10:45:52;1.58;;;1.15;;
12687;SDS011;6408;59.388;17.798;2022-08-14T10:48:22;2.20;;;1.30;;
12687;SDS011;6408;59.388;17.798;2022-08-14T10:50:49;2.05;;;1.42;;
12687;SDS011;6408;59.388;17.798;2022-08-14T10:53:28;2.15;;;1.10;;
12687;SDS011;6408;59.388;17.798;2022-08-14T10:55:58;1.10;;;1.00;;
12687;SDS011;6408;59.388;17.798;2022-08-14T10:58:28;1.85;;;1.30;;
12687;SDS011;6408;59.388;17.798;2022-08-14T11:00:58;1.52;;;1.20;;
12687;SDS011;6408;59.388;17.798;2022-08-14T11:03:35;1.92;;;1.15;;
12687;SDS011;6408;59.388;17.798;2022-08-14T11:06:11;1.95;;;1.50;;
12687;SDS011;6408;59.388;17.798;2022-08-14T11:08:43;3.72;;;1.35;;
12687;SDS011;6408;59.388;17.798;2022-08-14T11:11:13;1.40;;;1.10;;
12687;SDS011;6408;59.388;17.798;2022-08-14T11:13:41;1.23;;;1.17;;
12687;SDS011;6408;59.388;17.798;2022-08-14T11:16:11;1.20;;;1.10;;
12687;SDS011;6408;59.388;17.798;2022-08-14T11:18:40;1.20;;;1.10;;
12687;SDS011;6408;59.388;17.798;2022-08-14T11:21:11;1.98;;;1.27;;
12687;SDS011;6408;59.388;17.798;2022-08-14T11:23:40;6.80;;;1.38;;
12687;SDS011;6408;59.388;17.798;2022-08-14T11:26:10;1.25;;;1.15;;
12687;SDS011;6408;59.388;17.798;2022-08-14T11:28:39;1.30;;;1.20;;
12687;SDS011;6408;59.388;17.798;2022-08-14T11:31:09;3.53;;;1.40;;
12687;SDS011;6408;59.388;17.798;2022-08-14T11:33:38;1.30;;;1.20;;
12687;SDS011;6408;59.388;17.798;2022-08-14T11:36:06;3.58;;;1.75;;
12687;SDS011;6408;59.388;17.798;2022-08-14T11:38:35;1.48;;;1.10;;
12687;SDS011;6408;59.388;17.798;2022-08-14T11:41:02;2.30;;;1.30;;
12687;SDS011;6408;59.388;17.798;2022-08-14T11:43:30;2.17;;;1.10;;
12687;SDS011;6408;59.388;17.798;2022-08-14T11:45:59;1.10;;;1.10;;
12687;SDS011;6408;59.388;17.798;2022-08-14T11:48:26;2.10;;;1.33;;
12687;SDS011;6408;59.388;17.798;2022-08-14T11:50:53;1.30;;;1.20;;
12687;SDS011;6408;59.388;17.798;2022-08-14T11:53:20;1.40;;;1.30;;
12687;SDS011;6408;59.388;17.798;2022-08-14T11:55:53;1.48;;;1.33;;
12687;SDS011;6408;59.388;17.798;2022-08-14T11:58:24;1.67;;;1.30;;
12687;SDS011;6408;59.388;17.798;2022-08-14T12:00:54;3.10;;;1.27;;
12687;SDS011;6408;59.388;17.798;2022-08-14T12:03:37;2.03;;;1.20;;
12687;SDS011;6408;59.388;17.798;2022-08-14T12:06:08;1.17;;;1.10;;
12687;SDS011;6408;59.388;17.798;2022-08-14T12:08:36;3.70;;;1.58;;
12687;SDS011;6408;59.388;17.798;2022-08-14T12:11:04;1.67;;;1.40;;
12687;SDS011;6408;59.388;17.798;2022-08-14T12:13:33;2.83;;;1.30;;
12687;SDS011;6408;59.388;17.798;2022-08-14T12:16:01;2.38;;;1.02;;
12687;SDS011;6408;59.388;17.798;2022-08-14T12:18:29;4.60;;;1.30;;
12687;SDS011;6408;59.388;17.798;2022-08-14T12:21:10;1.20;;;1.10;;
12687;SDS011;6408;59.388;17.798;2022-08-14T12:23:37;2.55;;;1.25;;
12687;SDS011;6408;59.388;17.798;2022-08-14T12:26:04;1.73;;;1.30;;
12687;SDS011;6408;59.388;17.798;2022-08-14T12:28:33;2.47;;;1.13;;
12687;SDS011;6408;59.388;17.798;2022-08-14T12:31:00;1.20;;;1.10;;
12687;SDS011;6408;59.388;17.798;2022-08-14T12:33:41;2.33;;;1.30;;
12687;SDS011;6408;59.388;17.798;2022-08-14T12:36:18;1.13;;;1.05;;
12687;SDS011;6408;59.388;17.798;2022-08-14T12:38:46;1.67;;;1.05;;
12687;SDS011;6408;59.388;17.798;2022-08-14T12:41:15;1.25;;;1.15;;
12687;SDS011;6408;59.388;17.798;2022-08-14T12:43:44;1.95;;;1.00;;
12687;SDS011;6408;59.388;17.798;2022-08-14T12:46:19;1.25;;;1.00;;
12687;SDS011;6408;59.388;17.798;2022-08-14T12:48:47;0.90;;;0.90;;
12687;SDS011;6408;59.388;17.798;2022-08-14T12:51:17;5.85;;;1.30;;
12687;SDS011;6408;59.388;17.798;2022-08-14T12:53:44;1.10;;;1.00;;
12687;SDS011;6408;59.388;17.798;2022-08-14T12:56:11;1.45;;;0.90;;
12687;SDS011;6408;59.388;17.798;2022-08-14T12:58:45;1.90;;;1.23;;
12687;SDS011;6408;59.388;17.798;2022-08-14T13:01:17;1.98;;;1.25;;
12687;SDS011;6408;59.388;17.798;2022-08-14T13:03:44;1.05;;;0.90;;
12687;SDS011;6408;59.388;17.798;2022-08-14T13:06:12;1.05;;;0.90;;
12687;SDS011;6408;59.388;17.798;2022-08-14T13:08:40;0.90;;;0.90;;
12687;SDS011;6408;59.388;17.798;2022-08-14T13:11:09;1.13;;;1.00;;
12687;SDS011;6408;59.388;17.798;2022-08-14T13:13:39;1.35;;;1.25;;
12687;SDS011;6408;59.388;17.798;2022-08-14T13:16:08;2.50;;;1.17;;
12687;SDS011;6408;59.388;17.798;2022-08-14T13:18:40;1.38;;;1.27;;
12687;SDS011;6408;59.388;17.798;2022-08-14T13:21:09;2.50;;;1.10;;
12687;SDS011;6408;59.388;17.798;2022-08-14T13:23:37;2.70;;;1.38;;
12687;SDS011;6408;59.388;17.798;2022-08-14T13:26:08;1.60;;;1.17;;
12687;SDS011;6408;59.388;17.798;2022-08-14T13:28:37;1.45;;;1.27;;
12687;SDS011;6408;59.388;17.798;2022-08-14T13:31:07;1.67;;;1.20;;
12687;SDS011;6408;59.388;17.798;2022-08-14T13:33:34;1.45;;;1.27;;
12687;SDS011;6408;59.388;17.798;2022-08-14T13:36:02;1.83;;;1.27;;
12687;SDS011;6408;59.388;17.798;2022-08-14T13:38:29;3.80;;;1.27;;
12687;SDS011;6408;59.388;17.798;2022-08-14T13:40:57;1.45;;;1.20;;
12687;SDS011;6408;59.388;17.798;2022-08-14T13:43:24;4.75;;;1.50;;
12687;SDS011;6408;59.388;17.798;2022-08-14T13:45:51;4.32;;;1.50;;
12687;SDS011;6408;59.388;17.798;2022-08-14T13:48:20;2.40;;;1.38;;
12687;SDS011;6408;59.388;17.798;2022-08-14T13:50:48;2.95;;;1.40;;
12687;SDS011;6408;59.388;17.798;2022-08-14T13:53:19;2.33;;;1.50;;
12687;SDS011;6408;59.388;17.798;2022-08-14T13:55:49;2.83;;;1.40;;
12687;SDS011;6408;59.388;17.798;2022-08-14T13:58:20;3.42;;;1.48;;
12687;SDS011;6408;59.388;17.798;2022-08-14T14:00:49;3.75;;;1.52;;
12687;SDS011;6408;59.388;17.798;2022-08-14T14:03:17;2.22;;;1.63;;
12687;SDS011;6408;59.388;17.798;2022-08-14T14:05:44;4.32;;;1.38;;
12687;SDS011;6408;59.388;17.798;2022-08-14T14:08:15;2.70;;;1.75;;
12687;SDS011;6408;59.388;17.798;2022-08-14T14:10:44;2.28;;;1.40;;
12687;SDS011;6408;59.388;17.798;2022-08-14T14:13:13;3.63;;;1.48;;
12687;SDS011;6408;59.388;17.798;2022-08-14T14:15:43;3.25;;;1.50;;
12687;SDS011;6408;59.388;17.798;2022-08-14T14:18:11;2.92;;;1.65;;
12687;SDS011;6408;59.388;17.798;2022-08-14T14:20:42;6.30;;;1.70;;
12687;SDS011;6408;59.388;17.798;2022-08-14T14:23:11;3.25;;;1.40;;
12687;SDS011;6408;59.388;17.798;2022-08-14T14:25:39;3.72;;;1.80;;
12687;SDS011;6408;59.388;17.798;2022-08-14T14:28:07;3.08;;;2.00;;
12687;SDS011;6408;59.388;17.798;2022-08-14T14:30:35;7.25;;;1.73;;
12687;SDS011;6408;59.388;17.798;2022-08-14T14:33:07;4.22;;;1.70;;
12687;SDS011;6408;59.388;17.798;2022-08-14T14:35:36;4.18;;;1.55;;
12687;SDS011;6408;59.388;17.798;2022-08-14T14:38:04;2.80;;;1.67;;
12687;SDS011;6408;59.388;17.798;2022-08-14T14:40:32;4.40;;;1.60;;
12687;SDS011;6408;59.388;17.798;2022-08-14T14:43:01;4.90;;;1.90;;
12687;SDS011;6408;59.388;17.798;2022-08-14T14:45:28;6.38;;;2.00;;
12687;SDS011;6408;59.388;17.798;2022-08-14T14:47:56;2.10;;;1.77;;
12687;SDS011;6408;59.388;17.798;2022-08-14T14:50:25;6.97;;;1.70;;
12687;SDS011;6408;59.388;17.798;2022-08-14T14:52:52;5.18;;;2.00;;
12687;SDS011;6408;59.388;17.798;2022-08-14T14:55:19;4.47;;;1.98;;
12687;SDS011;6408;59.388;17.798;2022-08-14T14:57:46;3.53;;;1.83;;
12687;SDS011;6408;59.388;17.798;2022-08-14T15:00:13;5.47;;;1.70;;
12687;SDS011;6408;59.388;17.798;2022-08-14T15:02:42;4.28;;;1.80;;